Time;durP1;ratioP1;P1;durP2;ratioP2;P2;SDS_P1;SDS_P2;PMS_P1;PMS_P2;Temp;Humidity;BMP_temperature;BMP_pressure;BME280_temperature;BME280_humidity;BME280_pressure;Samples;Min_cycle;Max_cycle;Signal;HPM_P1;HPM_P2
2023/09/24 00:02:20;;;;;;;5.93;3.65;;;;;;;;;;5070898;28;20209;-43
2023/09/24 00:04:47;;;;;;;4.18;3.50;;;;;;;;;;5079137;28;20021;-41
2023/09/24 00:07:15;;;;;;;9.38;4.25;;;;;;;;;;5079261;28;20040;-48
2023/09/24 00:09:42;;;;;;;11.35;4.15;;;;;;;;;;5094964;28;20062;-46
2023/09/24 00:12:09;;;;;;;7.35;3.40;;;;;;;;;;5100028;28;20028;-54
2023/09/24 00:14:35;;;;;;;7.32;3.42;;;;;;;;;;5076655;28;20029;-49
2023/09/24 00:17:03;;;;;;;4.53;3.55;;;;;;;;;;5079330;28;20104;-50
2023/09/24 00:19:30;;;;;;;6.18;3.30;;;;;;;;;;5067443;28;20023;-49
2023/09/24 00:21:57;;;;;;;6.00;3.40;;;;;;;;;;5064135;28;20305;-48
2023/09/24 00:24:24;;;;;;;6.45;3.55;;;;;;;;;;5091352;28;20024;-44
2023/09/24 00:26:50;;;;;;;5.95;3.30;;;;;;;;;;5085413;28;20024;-47
2023/09/24 00:29:20;;;;;;;9.38;3.60;;;;;;;;;;5072394;28;20092;-45
2023/09/24 00:31:47;;;;;;;6.45;3.72;;;;;;;;;;5064712;28;20343;-46
2023/09/24 00:34:14;;;;;;;5.22;3.47;;;;;;;;;;5063583;28;20124;-43
2023/09/24 00:36:41;;;;;;;9.68;3.28;;;;;;;;;;5062584;28;20056;-53
2023/09/24 00:39:07;;;;;;;5.40;3.17;;;;;;;;;;5061594;28;20029;-42
2023/09/24 00:41:34;;;;;;;6.90;3.17;;;;;;;;;;5061287;28;20213;-42
2023/09/24 00:44:01;;;;;;;6.53;3.05;;;;;;;;;;5061402;28;20017;-44
2023/09/24 00:46:29;;;;;;;4.10;2.80;;;;;;;;;;5061305;28;20091;-45
2023/09/24 00:48:57;;;;;;;7.38;3.10;;;;;;;;;;5061516;28;20013;-42
2023/09/24 00:51:24;;;;;;;7.40;3.08;;;;;;;;;;5061588;28;20036;-42
2023/09/24 00:53:54;;;;;;;4.10;2.97;;;;;;;;;;5062317;28;20220;-44
2023/09/24 00:56:24;;;;;;;8.07;6.10;;;;;;;;;;5063354;28;20312;-48
2023/09/24 00:58:53;;;;;;;5.50;4.95;;;;;;;;;;5064485;28;20074;-43
2023/09/24 01:01:29;;;;;;;5.35;4.13;;;;;;;;;;5064101;28;20032;-43
2023/09/24 01:03:56;;;;;;;5.45;3.72;;;;;;;;;;5064145;28;20051;-45
2023/09/24 01:06:23;;;;;;;5.88;3.60;;;;;;;;;;5064042;28;20029;-43
2023/09/24 01:08:50;;;;;;;12.90;10.07;;;;;;;;;;5063725;28;20368;-46
2023/09/24 01:11:19;;;;;;;15.45;13.27;;;;;;;;;;5064007;28;20021;-43
2023/09/24 01:13:46;;;;;;;12.55;9.10;;;;;;;;;;5063329;28;20233;-41
2023/09/24 01:16:13;;;;;;;9.27;7.03;;;;;;;;;;5062962;28;20025;-42
2023/09/24 01:18:41;;;;;;;6.25;5.20;;;;;;;;;;5064070;28;20116;-43
2023/09/24 01:21:12;;;;;;;4.20;3.80;;;;;;;;;;5063896;28;20075;-43
2023/09/24 01:23:40;;;;;;;4.90;3.53;;;;;;;;;;5063753;28;20056;-43
2023/09/24 01:26:11;;;;;;;3.75;2.92;;;;;;;;;;5063887;28;20213;-42
2023/09/24 01:28:39;;;;;;;6.20;4.55;;;;;;;;;;5063765;28;20040;-44
2023/09/24 01:31:06;;;;;;;8.98;8.07;;;;;;;;;;5064040;28;20096;-41
2023/09/24 01:33:36;;;;;;;15.27;12.65;;;;;;;;;;5064141;28;20302;-40
2023/09/24 01:36:04;;;;;;;11.38;9.50;;;;;;;;;;5063473;28;20086;-45
2023/09/24 01:38:31;;;;;;;14.95;9.43;;;;;;;;;;5064201;28;20238;-42
2023/09/24 01:41:00;;;;;;;9.10;6.28;;;;;;;;;;5063752;28;20329;-40
2023/09/24 01:43:27;;;;;;;9.40;7.07;;;;;;;;;;5063932;28;20032;-41
2023/09/24 01:45:53;;;;;;;13.15;10.57;;;;;;;;;;5063878;28;20059;-46
2023/09/24 01:48:20;;;;;;;10.77;8.32;;;;;;;;;;5064167;28;20025;-43
2023/09/24 01:50:47;;;;;;;14.73;7.25;;;;;;;;;;5063479;28;20031;-49
2023/09/24 01:53:14;;;;;;;8.57;6.05;;;;;;;;;;5067562;28;20025;-43
2023/09/24 01:55:41;;;;;;;10.77;5.85;;;;;;;;;;5067631;28;20240;-47
2023/09/24 01:58:08;;;;;;;6.32;5.05;;;;;;;;;;5067885;28;20101;-41
2023/09/24 02:00:34;;;;;;;6.07;5.45;;;;;;;;;;5067545;28;20009;-43
2023/09/24 02:03:05;;;;;;;7.40;5.40;;;;;;;;;;5068061;28;20028;-43
2023/09/24 02:05:35;;;;;;;8.32;5.82;;;;;;;;;;5067286;28;20033;-42
2023/09/24 02:08:08;;;;;;;6.80;5.65;;;;;;;;;;5082968;28;20091;-45
2023/09/24 02:10:35;;;;;;;10.13;7.57;;;;;;;;;;5086881;28;20049;-45
2023/09/24 02:13:03;;;;;;;12.68;8.40;;;;;;;;;;5085921;28;20028;-49
2023/09/24 02:15:31;;;;;;;8.82;6.70;;;;;;;;;;5087011;28;20208;-43
2023/09/24 02:17:58;;;;;;;9.88;6.10;;;;;;;;;;5087507;28;20094;-44
2023/09/24 02:20:25;;;;;;;7.82;5.57;;;;;;;;;;5086955;28;20027;-51
2023/09/24 02:22:59;;;;;;;10.63;5.95;;;;;;;;;;5087594;28;20021;-48
2023/09/24 02:25:26;;;;;;;11.55;6.68;;;;;;;;;;5087141;28;20029;-48
2023/09/24 02:27:54;;;;;;;11.80;6.93;;;;;;;;;;5087261;28;20077;-49
2023/09/24 02:30:21;;;;;;;10.15;6.90;;;;;;;;;;5087264;28;20033;-45
2023/09/24 02:32:48;;;;;;;12.32;9.73;;;;;;;;;;5087304;28;20276;-44
2023/09/24 02:35:17;;;;;;;15.55;10.27;;;;;;;;;;5086725;28;20020;-46
2023/09/24 02:37:50;;;;;;;12.02;7.40;;;;;;;;;;5087263;28;20040;-45
2023/09/24 02:40:26;;;;;;;11.43;6.75;;;;;;;;;;5086724;28;20091;-41
2023/09/24 02:42:54;;;;;;;10.45;5.85;;;;;;;;;;5087168;28;20104;-44
2023/09/24 02:45:21;;;;;;;8.45;5.70;;;;;;;;;;5086719;28;20190;-42
2023/09/24 02:47:49;;;;;;;10.75;5.80;;;;;;;;;;5086939;28;20059;-47
2023/09/24 02:50:17;;;;;;;9.25;5.00;;;;;;;;;;5086675;28;20020;-47
2023/09/24 02:52:45;;;;;;;10.95;5.18;;;;;;;;;;5086889;28;20060;-42
2023/09/24 02:55:13;;;;;;;9.90;5.10;;;;;;;;;;5086654;28;20220;-40
2023/09/24 02:57:50;;;;;;;9.00;5.18;;;;;;;;;;5086930;28;20048;-42
2023/09/24 03:00:59;;;;;;;7.80;5.07;;;;;;;;;;5086343;28;20376;-44
2023/09/24 03:03:09;;;;;;;8.75;5.18;;;;;;;;;;5081106;28;20043;-41
2023/09/24 03:05:36;;;;;;;8.65;4.38;;;;;;;;;;5086232;28;20040;-42
2023/09/24 03:08:03;;;;;;;8.15;3.90;;;;;;;;;;5086993;28;20029;-45
2023/09/24 03:10:31;;;;;;;7.63;4.10;;;;;;;;;;5086195;28;20335;-46
2023/09/24 03:12:58;;;;;;;4.97;4.40;;;;;;;;;;5086555;28;20032;-42
2023/09/24 03:15:25;;;;;;;8.32;4.57;;;;;;;;;;5086198;28;20090;-45
2023/09/24 03:17:52;;;;;;;5.55;4.10;;;;;;;;;;5086550;28;20044;-45
2023/09/24 03:20:19;;;;;;;5.95;4.13;;;;;;;;;;5085966;28;20088;-43
2023/09/24 03:22:48;;;;;;;7.20;4.60;;;;;;;;;;5086537;28;20029;-45
2023/09/24 03:25:17;;;;;;;9.68;5.25;;;;;;;;;;5086051;28;20070;-45
2023/09/24 03:27:45;;;;;;;8.93;4.90;;;;;;;;;;5086180;28;20231;-52
2023/09/24 03:30:14;;;;;;;8.25;5.20;;;;;;;;;;5086055;28;20095;-49
2023/09/24 03:32:43;;;;;;;10.25;6.07;;;;;;;;;;5086199;28;20208;-47
2023/09/24 03:35:11;;;;;;;12.45;5.72;;;;;;;;;;5085656;28;20047;-40
2023/09/24 03:37:43;;;;;;;16.80;5.82;;;;;;;;;;5086286;28;20313;-43
2023/09/24 03:40:24;;;;;;;12.93;5.78;;;;;;;;;;5085807;28;20024;-44
2023/09/24 03:42:51;;;;;;;13.27;8.60;;;;;;;;;;5086067;28;20292;-44
2023/09/24 03:45:18;;;;;;;10.93;8.35;;;;;;;;;;5085665;28;20040;-43
2023/09/24 03:47:45;;;;;;;18.60;11.88;;;;;;;;;;5085886;28;20104;-45
2023/09/24 03:50:14;;;;;;;17.50;11.85;;;;;;;;;;5085506;28;20438;-42
2023/09/24 03:52:42;;;;;;;16.30;9.52;;;;;;;;;;5085743;28;20024;-45
2023/09/24 03:55:08;;;;;;;14.52;7.47;;;;;;;;;;5085326;28;20078;-41
2023/09/24 03:57:35;;;;;;;24.83;6.72;;;;;;;;;;5085710;28;20251;-41
2023/09/24 04:00:06;;;;;;;8.10;6.28;;;;;;;;;;5085369;28;20058;-47
2023/09/24 04:02:33;;;;;;;12.07;8.60;;;;;;;;;;5085475;28;20031;-43
2023/09/24 04:05:00;;;;;;;12.50;8.10;;;;;;;;;;5085384;28;20111;-46
2023/09/24 04:07:27;;;;;;;10.90;6.35;;;;;;;;;;5085511;28;20036;-46
2023/09/24 04:09:55;;;;;;;7.78;5.50;;;;;;;;;;5084812;28;20056;-45
2023/09/24 04:12:22;;;;;;;7.60;5.38;;;;;;;;;;5085262;28;20103;-46
2023/09/24 04:14:53;;;;;;;6.25;4.53;;;;;;;;;;5084755;28;20024;-43
2023/09/24 04:17:20;;;;;;;6.80;6.00;;;;;;;;;;5085131;28;20033;-43
2023/09/24 04:19:47;;;;;;;6.53;5.18;;;;;;;;;;5084914;28;20134;-45
2023/09/24 04:22:15;;;;;;;9.32;6.70;;;;;;;;;;5085063;28;20024;-45
2023/09/24 04:24:42;;;;;;;12.00;9.57;;;;;;;;;;5084691;28;20062;-49
2023/09/24 04:27:08;;;;;;;16.02;10.90;;;;;;;;;;5085059;28;20142;-51
2023/09/24 04:29:35;;;;;;;9.88;7.72;;;;;;;;;;5084697;28;20013;-46
2023/09/24 04:32:02;;;;;;;10.57;5.90;;;;;;;;;;5084765;28;20044;-43
2023/09/24 04:34:28;;;;;;;8.07;4.30;;;;;;;;;;5084538;28;20036;-41
2023/09/24 04:36:55;;;;;;;8.07;4.10;;;;;;;;;;5084859;28;20028;-45
2023/09/24 04:39:22;;;;;;;5.45;4.18;;;;;;;;;;5084486;28;20097;-44
2023/09/24 04:41:49;;;;;;;6.03;3.50;;;;;;;;;;5084648;28;20029;-46
2023/09/24 04:44:17;;;;;;;3.42;2.75;;;;;;;;;;5084509;28;20016;-43
2023/09/24 04:46:44;;;;;;;4.88;2.88;;;;;;;;;;5084382;28;20037;-41
2023/09/24 04:49:10;;;;;;;6.07;3.13;;;;;;;;;;5084719;28;20096;-44
2023/09/24 04:51:37;;;;;;;4.20;3.13;;;;;;;;;;5084481;28;20035;-44
2023/09/24 04:54:04;;;;;;;5.90;2.90;;;;;;;;;;5084206;28;20045;-49
2023/09/24 04:56:31;;;;;;;9.55;5.97;;;;;;;;;;5084201;28;20040;-42
2023/09/24 04:58:58;;;;;;;5.45;4.25;;;;;;;;;;5084381;28;20070;-44
2023/09/24 05:01:24;;;;;;;6.32;4.78;;;;;;;;;;5084089;28;20029;-42
2023/09/24 05:03:51;;;;;;;6.80;4.97;;;;;;;;;;5084351;28;20032;-47
2023/09/24 05:06:18;;;;;;;4.25;3.47;;;;;;;;;;5084432;28;20021;-41
2023/09/24 05:08:45;;;;;;;6.20;3.58;;;;;;;;;;5083761;28;20045;-46
2023/09/24 05:11:13;;;;;;;5.47;3.40;;;;;;;;;;5084053;28;20036;-40
2023/09/24 05:13:44;;;;;;;4.18;2.60;;;;;;;;;;5084179;28;20024;-42
2023/09/24 05:16:10;;;;;;;5.57;2.90;;;;;;;;;;5084084;28;20060;-41
2023/09/24 05:18:37;;;;;;;15.95;4.70;;;;;;;;;;5084096;28;20249;-47
2023/09/24 05:21:05;;;;;;;15.85;5.63;;;;;;;;;;5084008;28;20012;-42
2023/09/24 05:23:32;;;;;;;16.13;8.50;;;;;;;;;;5084288;28;20190;-42
2023/09/24 05:25:59;;;;;;;20.02;12.48;;;;;;;;;;5083432;28;20077;-52
2023/09/24 05:28:25;;;;;;;13.60;8.55;;;;;;;;;;5084360;28;20021;-46
2023/09/24 05:30:53;;;;;;;8.15;6.05;;;;;;;;;;5083772;28;20036;-43
2023/09/24 05:33:20;;;;;;;11.60;7.55;;;;;;;;;;5084311;28;20039;-41
2023/09/24 05:35:51;;;;;;;10.25;6.28;;;;;;;;;;5083775;28;20016;-48
2023/09/24 05:38:17;;;;;;;9.10;4.85;;;;;;;;;;5084122;28;20045;-45
2023/09/24 05:40:45;;;;;;;8.60;4.35;;;;;;;;;;5083939;28;20228;-40
2023/09/24 05:43:11;;;;;;;5.50;3.88;;;;;;;;;;5084297;28;20220;-42
2023/09/24 05:45:44;;;;;;;6.40;3.50;;;;;;;;;;5083631;28;20028;-44
2023/09/24 05:48:11;;;;;;;8.73;4.55;;;;;;;;;;5084180;28;20040;-51
2023/09/24 05:50:38;;;;;;;6.60;3.78;;;;;;;;;;5083716;28;20351;-47
2023/09/24 05:53:06;;;;;;;5.93;3.28;;;;;;;;;;5083828;28;20025;-49
2023/09/24 05:55:33;;;;;;;4.35;3.45;;;;;;;;;;5083579;28;20028;-48
2023/09/24 05:58:00;;;;;;;7.50;4.13;;;;;;;;;;5084110;28;20043;-44
2023/09/24 06:00:28;;;;;;;8.05;4.45;;;;;;;;;;5083445;28;20019;-50
2023/09/24 06:02:55;;;;;;;4.88;3.53;;;;;;;;;;5083940;28;20051;-41
2023/09/24 06:05:22;;;;;;;8.25;4.70;;;;;;;;;;5083576;28;20025;-45
2023/09/24 06:07:48;;;;;;;8.65;5.30;;;;;;;;;;5083770;28;20027;-41
2023/09/24 06:10:15;;;;;;;10.30;5.05;;;;;;;;;;5083471;28;20049;-51
2023/09/24 06:12:41;;;;;;;6.35;3.60;;;;;;;;;;5083832;28;20066;-45
2023/09/24 06:15:10;;;;;;;4.68;3.50;;;;;;;;;;5083317;28;20025;-48
2023/09/24 06:17:37;;;;;;;6.28;3.33;;;;;;;;;;5083737;28;20082;-43
2023/09/24 06:20:04;;;;;;;5.88;3.88;;;;;;;;;;5083454;28;20031;-44
2023/09/24 06:22:31;;;;;;;6.35;3.40;;;;;;;;;;5088286;28;20076;-46
2023/09/24 06:24:58;;;;;;;4.53;3.00;;;;;;;;;;5093059;28;20024;-48
2023/09/24 06:27:25;;;;;;;4.43;3.63;;;;;;;;;;5101077;28;20035;-49
2023/09/24 06:29:52;;;;;;;8.32;3.20;;;;;;;;;;5083218;28;20108;-46
2023/09/24 06:32:19;;;;;;;6.18;3.22;;;;;;;;;;5083541;28;20044;-49
2023/09/24 06:34:46;;;;;;;5.00;3.38;;;;;;;;;;5098777;28;20023;-48
2023/09/24 06:37:12;;;;;;;4.10;3.30;;;;;;;;;;5103674;28;20024;-50
2023/09/24 06:39:41;;;;;;;5.88;3.42;;;;;;;;;;5107236;28;20216;-46
2023/09/24 06:42:08;;;;;;;4.65;4.10;;;;;;;;;;5087227;28;20036;-48
2023/09/24 06:44:35;;;;;;;4.63;3.65;;;;;;;;;;5086670;28;20024;-50
2023/09/24 06:47:02;;;;;;;5.38;3.70;;;;;;;;;;5086924;28;20063;-52
2023/09/24 06:49:29;;;;;;;4.93;3.55;;;;;;;;;;5086753;28;20039;-55
2023/09/24 06:51:55;;;;;;;5.32;3.60;;;;;;;;;;5086764;28;20021;-55
2023/09/24 06:54:22;;;;;;;5.03;3.72;;;;;;;;;;5102440;28;20329;-54
2023/09/24 06:56:49;;;;;;;6.10;3.85;;;;;;;;;;5091668;28;20036;-55
2023/09/24 06:59:15;;;;;;;5.43;3.60;;;;;;;;;;5087317;28;20021;-55
2023/09/24 07:01:42;;;;;;;8.35;3.70;;;;;;;;;;5087518;28;20243;-54
2023/09/24 07:04:09;;;;;;;5.20;3.92;;;;;;;;;;5086434;28;20031;-52
2023/09/24 07:06:36;;;;;;;4.68;3.60;;;;;;;;;;5086431;28;20088;-54
2023/09/24 07:09:05;;;;;;;7.00;4.10;;;;;;;;;;5086449;28;20072;-52
2023/09/24 07:11:33;;;;;;;4.82;4.20;;;;;;;;;;5086494;28;20300;-48
2023/09/24 07:13:59;;;;;;;6.50;4.60;;;;;;;;;;5086192;28;20259;-52
2023/09/24 07:16:27;;;;;;;5.78;4.50;;;;;;;;;;5086346;28;20099;-50
2023/09/24 07:18:54;;;;;;;7.40;4.10;;;;;;;;;;5086256;28;20028;-56
2023/09/24 07:21:21;;;;;;;4.00;3.55;;;;;;;;;;5086023;28;20020;-48
2023/09/24 07:23:51;;;;;;;5.53;3.95;;;;;;;;;;5086391;28;20031;-47
2023/09/24 07:26:18;;;;;;;8.77;3.60;;;;;;;;;;5086159;28;20024;-53
2023/09/24 07:28:45;;;;;;;6.20;3.88;;;;;;;;;;5085955;28;20028;-53
2023/09/24 07:31:21;;;;;;;5.35;3.50;;;;;;;;;;5086086;28;20037;-58
2023/09/24 07:33:48;;;;;;;5.35;3.33;;;;;;;;;;5085981;28;20032;-54
2023/09/24 07:36:14;;;;;;;4.38;3.40;;;;;;;;;;5085609;28;20032;-52
2023/09/24 07:38:42;;;;;;;3.70;3.13;;;;;;;;;;5085840;28;20075;-49
2023/09/24 07:41:10;;;;;;;5.78;5.15;;;;;;;;;;5085662;28;20040;-53
2023/09/24 07:43:44;;;;;;;4.40;3.50;;;;;;;;;;5085624;28;20058;-54
2023/09/24 07:46:12;;;;;;;4.63;3.83;;;;;;;;;;5085572;28;20024;-47
2023/09/24 07:48:39;;;;;;;5.43;3.53;;;;;;;;;;5085129;28;20035;-49
2023/09/24 07:51:06;;;;;;;7.78;3.50;;;;;;;;;;5085176;28;20220;-53
2023/09/24 07:53:33;;;;;;;5.18;4.00;;;;;;;;;;5085408;28;20024;-54
2023/09/24 07:56:03;;;;;;;4.82;4.00;;;;;;;;;;5085411;28;20036;-47
2023/09/24 07:58:30;;;;;;;5.68;3.58;;;;;;;;;;5085890;28;20027;-50
2023/09/24 08:01:01;;;;;;;4.63;3.00;;;;;;;;;;5085416;28;20313;-48
2023/09/24 08:03:28;;;;;;;4.22;3.72;;;;;;;;;;5085692;28;20056;-49
2023/09/24 08:05:55;;;;;;;4.95;3.75;;;;;;;;;;5085434;28;20036;-52
2023/09/24 08:08:21;;;;;;;4.22;3.53;;;;;;;;;;5085530;28;20024;-51
2023/09/24 08:10:48;;;;;;;3.80;3.30;;;;;;;;;;5085071;28;20035;-54
2023/09/24 08:13:15;;;;;;;4.10;3.33;;;;;;;;;;5085656;28;20032;-56
2023/09/24 08:15:41;;;;;;;4.00;3.40;;;;;;;;;;5084949;28;20232;-54
2023/09/24 08:18:09;;;;;;;4.85;3.75;;;;;;;;;;5085317;28;20033;-58
2023/09/24 08:20:36;;;;;;;4.03;3.42;;;;;;;;;;5084978;28;20059;-53
2023/09/24 08:23:03;;;;;;;4.03;3.30;;;;;;;;;;5085443;28;20070;-57
2023/09/24 08:25:31;;;;;;;4.75;3.53;;;;;;;;;;5084091;28;20225;-56
2023/09/24 08:27:57;;;;;;;4.07;3.67;;;;;;;;;;5083345;28;20040;-54
2023/09/24 08:30:24;;;;;;;4.75;3.50;;;;;;;;;;5064821;28;20032;-55
2023/09/24 08:32:51;;;;;;;4.70;3.30;;;;;;;;;;5072354;28;20403;-57
2023/09/24 08:35:18;;;;;;;4.18;3.10;;;;;;;;;;5084639;28;20085;-56
2023/09/24 08:37:45;;;;;;;5.38;3.67;;;;;;;;;;5085094;28;20020;-56
2023/09/24 08:40:12;;;;;;;6.07;3.28;;;;;;;;;;5084655;28;20036;-45
2023/09/24 08:42:39;;;;;;;7.07;3.88;;;;;;;;;;5085114;28;20054;-52
2023/09/24 08:45:11;;;;;;;4.47;3.20;;;;;;;;;;5084656;28;20028;-54
2023/09/24 08:47:38;;;;;;;5.88;3.88;;;;;;;;;;5084715;28;20040;-49
2023/09/24 08:50:06;;;;;;;4.32;3.75;;;;;;;;;;5084604;28;20264;-49
2023/09/24 08:52:34;;;;;;;4.45;3.33;;;;;;;;;;5084679;28;20223;-48
2023/09/24 08:55:03;;;;;;;4.43;3.30;;;;;;;;;;5084193;28;20035;-50
2023/09/24 08:57:30;;;;;;;4.20;3.67;;;;;;;;;;5084618;28;20042;-49
2023/09/24 08:59:57;;;;;;;5.40;3.92;;;;;;;;;;5084266;28;20028;-53
2023/09/24 09:02:23;;;;;;;4.75;3.53;;;;;;;;;;5084193;28;20309;-55
2023/09/24 09:04:51;;;;;;;6.43;4.07;;;;;;;;;;5084447;28;20082;-54
2023/09/24 09:07:17;;;;;;;5.93;3.40;;;;;;;;;;5079954;28;20339;-47
2023/09/24 09:09:54;;;;;;;5.28;4.03;;;;;;;;;;5082740;28;20044;-46
2023/09/24 09:12:22;;;;;;;5.07;3.65;;;;;;;;;;5084379;28;20149;-48
2023/09/24 09:14:48;;;;;;;7.40;3.47;;;;;;;;;;5083986;28;20224;-50
2023/09/24 09:17:15;;;;;;;8.60;4.28;;;;;;;;;;5084193;28;20319;-53
2023/09/24 09:19:48;;;;;;;22.10;11.30;;;;;;;;;;5084018;28;20261;-53
2023/09/24 09:22:19;;;;;;;24.13;11.25;;;;;;;;;;5084159;28;20096;-52
2023/09/24 09:24:47;;;;;;;24.98;9.23;;;;;;;;;;5084036;28;20100;-51
2023/09/24 09:27:13;;;;;;;29.60;7.68;;;;;;;;;;5084145;28;20032;-54
2023/09/24 09:29:40;;;;;;;28.88;7.20;;;;;;;;;;5083886;28;20089;-50
2023/09/24 09:32:07;;;;;;;26.48;6.40;;;;;;;;;;5072521;28;20036;-54
2023/09/24 09:34:34;;;;;;;25.05;5.35;;;;;;;;;;5063837;28;20063;-48
2023/09/24 09:37:16;;;;;;;11.43;4.45;;;;;;;;;;5063809;28;20204;-51
2023/09/24 09:39:44;;;;;;;12.48;3.40;;;;;;;;;;5063744;28;20025;-54
2023/09/24 09:42:11;;;;;;;13.25;4.05;;;;;;;;;;5063922;28;20033;-52
2023/09/24 09:44:38;;;;;;;10.38;3.80;;;;;;;;;;5063594;28;20248;-52
2023/09/24 09:47:08;;;;;;;9.32;3.58;;;;;;;;;;5063817;28;20028;-47
2023/09/24 09:49:35;;;;;;;10.30;3.80;;;;;;;;;;5063643;28;20025;-48
2023/09/24 09:52:02;;;;;;;11.80;4.05;;;;;;;;;;5063574;28;20043;-48
2023/09/24 09:54:36;;;;;;;14.90;3.85;;;;;;;;;;5063654;28;20316;-50
2023/09/24 09:57:03;;;;;;;18.45;4.05;;;;;;;;;;5063624;28;20044;-53
2023/09/24 09:59:34;;;;;;;8.90;3.33;;;;;;;;;;5063552;28;20029;-53
2023/09/24 10:02:02;;;;;;;21.45;3.42;;;;;;;;;;5063666;28;20025;-53
2023/09/24 10:04:30;;;;;;;12.68;3.70;;;;;;;;;;5080789;28;20316;-54
2023/09/24 10:06:57;;;;;;;23.52;4.72;;;;;;;;;;5083617;28;20033;-53
2023/09/24 10:09:29;;;;;;;23.10;4.30;;;;;;;;;;5067377;28;20049;-57
2023/09/24 10:11:56;;;;;;;15.02;3.35;;;;;;;;;;5063319;28;20191;-58
2023/09/24 10:14:33;;;;;;;23.92;4.13;;;;;;;;;;5067619;28;20025;-54
2023/09/24 10:17:19;;;;;;;13.15;3.20;;;;;;;;;;5083776;28;20356;-55
2023/09/24 10:19:49;;;;;;;13.07;3.08;;;;;;;;;;5087658;28;20021;-53
2023/09/24 10:22:26;;;;;;;6.13;2.53;;;;;;;;;;5087516;28;20205;-55
2023/09/24 10:24:53;;;;;;;5.97;2.00;;;;;;;;;;5076936;28;20078;-48
2023/09/24 10:27:32;;;;;;;9.55;2.00;;;;;;;;;;5073078;28;20021;-50
2023/09/24 10:30:01;;;;;;;5.10;1.70;;;;;;;;;;5067093;28;20044;-50
2023/09/24 10:32:29;;;;;;;3.97;1.67;;;;;;;;;;5072488;28;20056;-54
2023/09/24 10:34:58;;;;;;;3.05;1.70;;;;;;;;;;5066930;28;20071;-51
2023/09/24 10:37:26;;;;;;;7.38;1.52;;;;;;;;;;5067240;28;20045;-60
2023/09/24 10:39:59;;;;;;;3.78;1.80;;;;;;;;;;5067013;28;20021;-56
2023/09/24 10:42:45;;;;;;;2.28;1.83;;;;;;;;;;5067004;28;20029;-55
2023/09/24 10:45:14;;;;;;;2.05;1.55;;;;;;;;;;5066824;28;20031;-54
2023/09/24 10:47:41;;;;;;;3.28;1.70;;;;;;;;;;5080460;28;20032;-55
2023/09/24 10:50:15;;;;;;;2.22;1.58;;;;;;;;;;5086593;28;20099;-50
2023/09/24 10:52:48;;;;;;;2.70;1.80;;;;;;;;;;5086971;28;20315;-48
2023/09/24 10:55:15;;;;;;;5.13;2.15;;;;;;;;;;5086564;28;20040;-51
2023/09/24 10:57:50;;;;;;;3.10;2.17;;;;;;;;;;5086899;28;20055;-52
2023/09/24 11:00:18;;;;;;;3.70;2.40;;;;;;;;;;5086449;28;20308;-52
2023/09/24 11:02:45;;;;;;;5.03;2.50;;;;;;;;;;5086861;28;20052;-52
2023/09/24 11:05:12;;;;;;;4.20;2.60;;;;;;;;;;5086460;28;20083;-49
2023/09/24 11:07:38;;;;;;;3.08;2.63;;;;;;;;;;5086746;28;20024;-49
2023/09/24 11:10:05;;;;;;;3.20;2.60;;;;;;;;;;5086420;28;20356;-49
2023/09/24 11:12:32;;;;;;;4.43;3.30;;;;;;;;;;5086660;28;20028;-53
2023/09/24 11:14:59;;;;;;;4.18;2.95;;;;;;;;;;5086256;28;20339;-49
2023/09/24 11:17:26;;;;;;;4.70;2.97;;;;;;;;;;5086454;28;20131;-51
2023/09/24 11:19:53;;;;;;;3.47;3.17;;;;;;;;;;5086432;28;20016;-52
2023/09/24 11:22:21;;;;;;;4.85;3.38;;;;;;;;;;5086399;28;20194;-50
2023/09/24 11:24:50;;;;;;;6.80;4.15;;;;;;;;;;5086054;28;20259;-50
2023/09/24 11:27:18;;;;;;;5.75;3.30;;;;;;;;;;5086269;28;20031;-48
2023/09/24 11:29:58;;;;;;;4.22;3.20;;;;;;;;;;5085927;28;20016;-52
2023/09/24 11:32:25;;;;;;;9.30;3.78;;;;;;;;;;5086379;28;20316;-53
2023/09/24 11:35:05;;;;;;;3.38;3.08;;;;;;;;;;5085868;28;20020;-56
2023/09/24 11:37:45;;;;;;;6.10;4.22;;;;;;;;;;5066039;28;20032;-54
2023/09/24 11:40:22;;;;;;;4.30;3.90;;;;;;;;;;5065996;28;20024;-58
2023/09/24 11:42:49;;;;;;;5.38;3.60;;;;;;;;;;5066108;28;20029;-49
2023/09/24 11:45:16;;;;;;;9.02;3.80;;;;;;;;;;5065799;28;20133;-49
2023/09/24 11:47:43;;;;;;;7.50;4.25;;;;;;;;;;5065869;28;20041;-48
2023/09/24 11:50:10;;;;;;;9.00;4.03;;;;;;;;;;5065583;28;20036;-54
2023/09/24 11:52:40;;;;;;;7.05;4.13;;;;;;;;;;5065774;28;20244;-56
2023/09/24 11:55:07;;;;;;;13.98;4.32;;;;;;;;;;5065287;28;20237;-54
2023/09/24 11:57:33;;;;;;;9.40;3.85;;;;;;;;;;5065770;28;20091;-54
2023/09/24 12:00:01;;;;;;;9.10;3.67;;;;;;;;;;5065464;28;20309;-54
2023/09/24 12:02:28;;;;;;;6.15;3.90;;;;;;;;;;5065502;28;20033;-55
2023/09/24 12:04:54;;;;;;;5.22;3.30;;;;;;;;;;5075068;28;20255;-50
2023/09/24 12:07:21;;;;;;;6.07;3.53;;;;;;;;;;5085473;28;20021;-49
2023/09/24 12:09:48;;;;;;;8.38;3.97;;;;;;;;;;5085084;28;20044;-50
2023/09/24 12:12:14;;;;;;;11.73;3.78;;;;;;;;;;5085427;28;20039;-49
2023/09/24 12:14:41;;;;;;;9.30;3.88;;;;;;;;;;5085246;28;20040;-49
2023/09/24 12:17:08;;;;;;;8.50;3.72;;;;;;;;;;5085218;28;20306;-51
2023/09/24 12:19:34;;;;;;;7.60;3.63;;;;;;;;;;5085046;28;20025;-50
2023/09/24 12:22:01;;;;;;;6.05;3.55;;;;;;;;;;5085223;28;20020;-50
2023/09/24 12:24:28;;;;;;;12.88;4.22;;;;;;;;;;5084880;28;20035;-49
2023/09/24 12:26:54;;;;;;;16.23;4.10;;;;;;;;;;5085176;28;20036;-53
2023/09/24 12:29:21;;;;;;;15.38;3.90;;;;;;;;;;5084902;28;20024;-52
2023/09/24 12:31:48;;;;;;;11.82;4.22;;;;;;;;;;5084911;28;20316;-48
2023/09/24 12:34:14;;;;;;;18.60;4.28;;;;;;;;;;5084888;28;20062;-49
2023/09/24 12:36:41;;;;;;;10.45;3.50;;;;;;;;;;5084375;28;20122;-50
2023/09/24 12:39:08;;;;;;;6.40;3.35;;;;;;;;;;5084844;28;20227;-48
2023/09/24 12:41:35;;;;;;;6.38;3.10;;;;;;;;;;5084752;28;20363;-51
2023/09/24 12:44:01;;;;;;;7.32;3.10;;;;;;;;;;5084597;28;20027;-50
2023/09/24 12:46:28;;;;;;;5.53;3.35;;;;;;;;;;5084569;28;20158;-47
2023/09/24 12:48:54;;;;;;;4.95;3.35;;;;;;;;;;5084549;28;20040;-50
2023/09/24 12:51:21;;;;;;;5.88;3.28;;;;;;;;;;5084525;28;20028;-49
2023/09/24 12:53:48;;;;;;;4.78;3.35;;;;;;;;;;5084446;28;20092;-51
2023/09/24 12:56:15;;;;;;;6.53;3.60;;;;;;;;;;5084468;28;20303;-48
2023/09/24 12:58:42;;;;;;;3.95;3.20;;;;;;;;;;5084479;28;20339;-49
2023/09/24 13:01:08;;;;;;;5.47;3.60;;;;;;;;;;5084225;28;20051;-48
2023/09/24 13:03:37;;;;;;;5.20;3.30;;;;;;;;;;5084216;28;20028;-51
2023/09/24 13:06:15;;;;;;;3.97;2.78;;;;;;;;;;5084206;28;20028;-49
2023/09/24 13:08:41;;;;;;;6.22;3.63;;;;;;;;;;5084062;28;20041;-50
2023/09/24 13:11:08;;;;;;;5.32;3.15;;;;;;;;;;5084137;28;20062;-48
2023/09/24 13:13:35;;;;;;;5.18;2.80;;;;;;;;;;5084119;28;20090;-50
2023/09/24 13:16:01;;;;;;;4.03;3.03;;;;;;;;;;5084009;28;20276;-50
2023/09/24 13:18:28;;;;;;;4.88;2.90;;;;;;;;;;5084543;28;20096;-49
2023/09/24 13:20:54;;;;;;;4.95;2.75;;;;;;;;;;5084181;28;20032;-53
2023/09/24 13:23:21;;;;;;;3.88;3.00;;;;;;;;;;5083798;28;20071;-49
2023/09/24 13:25:48;;;;;;;3.55;2.65;;;;;;;;;;5083970;28;20044;-49
2023/09/24 13:28:14;;;;;;;3.60;2.70;;;;;;;;;;5083925;28;20044;-51
2023/09/24 13:30:42;;;;;;;3.30;2.80;;;;;;;;;;5083888;28;20215;-47
2023/09/24 13:33:09;;;;;;;4.78;2.95;;;;;;;;;;5079902;28;20062;-48
2023/09/24 13:35:40;;;;;;;4.15;2.90;;;;;;;;;;5083754;28;20107;-48
2023/09/24 13:38:07;;;;;;;6.40;3.10;;;;;;;;;;5084167;28;20029;-48
2023/09/24 13:40:40;;;;;;;3.58;3.10;;;;;;;;;;5083900;28;20229;-53
2023/09/24 13:43:07;;;;;;;3.50;3.20;;;;;;;;;;5084190;28;20075;-56
2023/09/24 13:45:42;;;;;;;4.45;3.40;;;;;;;;;;5083655;28;20020;-57
2023/09/24 13:48:12;;;;;;;3.40;3.10;;;;;;;;;;5086066;28;20036;-58
2023/09/24 13:50:40;;;;;;;6.43;3.45;;;;;;;;;;5087986;28;20043;-51
2023/09/24 13:53:08;;;;;;;6.22;4.25;;;;;;;;;;5084440;28;20032;-52
2023/09/24 13:55:36;;;;;;;8.88;4.20;;;;;;;;;;5070865;28;20048;-52
2023/09/24 13:58:05;;;;;;;7.70;3.95;;;;;;;;;;5080810;28;20036;-51
2023/09/24 14:00:32;;;;;;;8.63;3.70;;;;;;;;;;5076296;28;20052;-48
2023/09/24 14:02:58;;;;;;;5.55;3.85;;;;;;;;;;5081728;28;20032;-51
2023/09/24 14:05:26;;;;;;;6.93;3.80;;;;;;;;;;5083099;28;20245;-48
2023/09/24 14:13:23;;;;;;;3.70;3.40;;;;;;;;;;5070158;28;20083;-55
2023/09/24 14:15:50;;;;;;;3.95;3.55;;;;;;;;;;5078796;28;20099;-50
2023/09/24 14:18:17;;;;;;;5.40;3.30;;;;;;;;;;5080648;28;20033;-46
2023/09/24 14:20:43;;;;;;;3.97;3.25;;;;;;;;;;5083183;28;20069;-51
2023/09/24 14:23:12;;;;;;;5.22;3.72;;;;;;;;;;5087672;28;20041;-49
2023/09/24 14:25:45;;;;;;;5.47;3.90;;;;;;;;;;5079113;28;20134;-54
2023/09/24 14:28:11;;;;;;;;;;;;;;;;;;5067863;28;20044;-49
2023/09/24 14:30:38;;;;;;;3.80;3.50;;;;;;;;;;5081154;28;19900;-55
2023/09/24 14:33:08;;;;;;;4.63;3.38;;;;;;;;;;5087442;28;20092;-54
2023/09/24 14:35:35;;;;;;;4.72;3.28;;;;;;;;;;5086458;28;20324;-51
2023/09/24 14:38:02;;;;;;;5.15;3.80;;;;;;;;;;5087063;28;20320;-42
2023/09/24 14:40:29;;;;;;;4.18;3.78;;;;;;;;;;5089738;28;20253;-47
2023/09/24 14:42:56;;;;;;;4.20;3.80;;;;;;;;;;5089582;28;20040;-48
2023/09/24 14:45:23;;;;;;;4.78;3.80;;;;;;;;;;5102607;28;20052;-54
2023/09/24 14:47:49;;;;;;;5.40;3.83;;;;;;;;;;5087057;28;20036;-48
2023/09/24 14:50:16;;;;;;;3.90;3.58;;;;;;;;;;5086734;28;20244;-47
2023/09/24 14:52:43;;;;;;;8.65;3.95;;;;;;;;;;5082342;28;20328;-48